createdAt,value
2019-04-10T00:00:06.414Z,88
2019-04-10T00:05:06.174Z,88
2019-04-10T00:10:06.181Z,88
2019-04-10T00:15:07.155Z,88
2019-04-10T00:20:06.107Z,88
2019-04-10T00:25:06.103Z,88
2019-04-10T00:30:06.920Z,88
2019-04-10T00:35:06.436Z,88
2019-04-10T00:40:06.875Z,88
2019-04-10T00:45:06.174Z,88
2019-04-10T00:50:06.450Z,88
2019-04-10T00:55:06.187Z,88
2019-04-10T01:00:06.471Z,88
2019-04-10T01:05:06.878Z,88
2019-04-10T01:10:06.155Z,87
2019-04-10T01:15:06.613Z,87
2019-04-10T01:20:07.079Z,87
2019-04-10T01:25:06.218Z,87
2019-04-10T01:30:07.135Z,87
2019-04-10T01:35:06.144Z,87
2019-04-10T01:40:06.594Z,87
2019-04-10T01:45:06.222Z,87
2019-04-10T01:50:06.403Z,87
2019-04-10T01:55:16.730Z,87
2019-04-10T02:00:06.744Z,87
2019-04-10T02:05:06.245Z,87
2019-04-10T02:10:06.200Z,87
2019-04-10T02:15:07.064Z,87
2019-04-10T02:20:07.009Z,87
2019-04-10T02:25:07.278Z,87
2019-04-10T02:30:08.022Z,87
2019-04-10T02:35:08.142Z,87
2019-04-10T02:40:07.579Z,87
2019-04-10T02:45:06.280Z,87
2019-04-10T02:50:08.276Z,87
2019-04-10T02:55:07.690Z,87
2019-04-10T03:00:06.243Z,87
2019-04-10T03:05:07.096Z,87
2019-04-10T03:10:17.210Z,87
2019-04-10T03:15:07.807Z,87
2019-04-10T03:20:06.213Z,87
2019-04-10T03:25:06.198Z,87
2019-04-10T03:30:07.539Z,87
2019-04-10T03:35:06.238Z,87
2019-04-10T03:40:07.013Z,87
2019-04-10T03:45:07.396Z,87
2019-04-10T03:50:06.629Z,87
2019-04-10T03:55:06.220Z,87
2019-04-10T04:00:06.286Z,87
2019-04-10T04:05:06.486Z,87
2019-04-10T04:10:06.469Z,87
2019-04-10T04:15:06.232Z,87
2019-04-10T04:20:06.517Z,87
2019-04-10T04:25:06.722Z,87
2019-04-10T04:30:06.426Z,87
2019-04-10T04:35:06.324Z,87
2019-04-10T04:40:06.320Z,87
2019-04-10T04:45:06.243Z,87
2019-04-10T04:50:06.327Z,87
2019-04-10T04:55:06.283Z,87
2019-04-10T05:00:07.645Z,87
2019-04-10T05:05:06.596Z,88
2019-04-10T05:10:07.033Z,88
2019-04-10T05:15:06.654Z,88
2019-04-10T05:20:06.974Z,88
2019-04-10T05:25:06.903Z,88
2019-04-10T05:30:06.324Z,88
2019-04-10T05:35:08.160Z,88
2019-04-10T05:40:07.557Z,88
2019-04-10T05:45:07.124Z,88
2019-04-10T05:50:06.313Z,88
2019-04-10T05:55:06.447Z,89
2019-04-10T06:00:06.279Z,89
2019-04-10T06:05:06.368Z,82
2019-04-10T06:10:08.981Z,81
2019-04-10T06:15:06.491Z,88
2019-04-10T06:20:07.069Z,84
2019-04-10T06:25:08.531Z,85
2019-04-10T06:30:06.377Z,88
2019-04-10T06:35:06.379Z,74
2019-04-10T06:40:14.133Z,62
2019-04-10T06:45:07.232Z,53
2019-04-10T06:50:06.528Z,50
2019-04-10T06:55:06.310Z,45
2019-04-10T07:00:06.555Z,42
2019-04-10T07:05:09.202Z,38
2019-04-10T07:10:20.124Z,38
2019-04-10T07:15:06.342Z,38
2019-04-10T07:20:07.430Z,36
2019-04-10T07:25:09.214Z,36
2019-04-10T07:30:06.365Z,34
2019-04-10T07:35:06.731Z,34
2019-04-10T07:40:06.367Z,33
2019-04-10T07:45:06.340Z,33
2019-04-10T07:50:08.527Z,33
2019-04-10T07:55:06.622Z,32
2019-04-10T08:00:06.639Z,29
2019-04-10T08:05:06.417Z,28
2019-04-10T08:10:06.387Z,28
2019-04-10T08:15:06.929Z,29
2019-04-10T08:20:06.399Z,29
2019-04-10T08:25:06.592Z,29
2019-04-10T08:30:07.377Z,28
2019-04-10T08:35:06.964Z,28
2019-04-10T08:40:07.443Z,27
2019-04-10T08:45:07.079Z,24
2019-04-10T08:50:07.604Z,23
2019-04-10T08:55:06.401Z,24
2019-04-10T09:00:06.414Z,24
2019-04-10T09:05:06.407Z,26
2019-04-10T09:10:06.410Z,23
2019-04-10T09:15:07.652Z,21
2019-04-10T09:20:06.676Z,20
2019-04-10T09:25:06.922Z,22
2019-04-10T09:30:06.667Z,24
2019-04-10T09:35:06.654Z,25
2019-04-10T09:40:06.414Z,25
2019-04-10T09:45:06.477Z,24
2019-04-10T09:50:07.465Z,22
2019-04-10T09:55:07.480Z,21
2019-04-10T10:00:07.398Z,20
2019-04-10T10:05:06.418Z,20
2019-04-10T10:10:06.630Z,20
2019-04-10T10:15:07.206Z,19
2019-04-10T10:20:06.456Z,18
2019-04-10T10:25:06.942Z,19
2019-04-10T10:30:07.127Z,19
2019-04-10T10:35:07.135Z,21
2019-04-10T10:40:08.284Z,20
2019-04-10T10:45:06.828Z,20
2019-04-10T10:50:06.702Z,21
2019-04-10T10:55:07.591Z,20
2019-04-10T11:00:06.459Z,19
2019-04-10T11:05:07.133Z,19
2019-04-10T11:10:06.914Z,19
2019-04-10T11:15:06.514Z,19
2019-04-10T11:20:07.944Z,19
2019-04-10T11:25:06.508Z,20
2019-04-10T11:30:08.215Z,20
2019-04-10T11:35:06.695Z,19
2019-04-10T11:40:08.442Z,20
2019-04-10T11:45:08.000Z,21
2019-04-10T11:50:09.388Z,20
2019-04-10T11:55:12.680Z,21
2019-04-10T12:00:11.267Z,21
2019-04-10T12:05:09.371Z,20
2019-04-10T12:15:06.534Z,24
2019-04-10T12:20:06.921Z,26
2019-04-10T12:25:06.943Z,29
2019-04-10T12:30:06.812Z,31
2019-04-10T12:35:06.865Z,32
2019-04-10T12:40:07.659Z,32
2019-04-10T12:45:06.520Z,32
2019-04-10T12:50:06.528Z,32
2019-04-10T12:55:06.490Z,32
2019-04-10T13:00:06.731Z,32
2019-04-10T13:05:07.167Z,32
2019-04-10T13:10:06.635Z,32
2019-04-10T13:15:07.430Z,31
2019-04-10T13:20:07.228Z,32
2019-04-10T13:25:06.579Z,32
2019-04-10T13:30:06.974Z,32
2019-04-10T13:35:06.537Z,32
2019-04-10T13:40:07.637Z,33
2019-04-10T13:45:06.872Z,33
2019-04-10T13:50:06.560Z,33
2019-04-10T13:55:07.373Z,33
2019-04-10T14:00:06.617Z,33
2019-04-10T14:05:07.361Z,33
2019-04-10T14:10:07.068Z,33
2019-04-10T14:15:07.666Z,34
2019-04-10T14:20:06.920Z,34
2019-04-10T14:25:07.287Z,34
2019-04-10T14:30:07.013Z,34
2019-04-10T14:35:07.177Z,34
2019-04-10T14:40:06.821Z,34
2019-04-10T14:45:06.625Z,35
2019-04-10T14:50:07.504Z,35
2019-04-10T14:55:06.611Z,34
2019-04-10T15:00:06.622Z,34
2019-04-10T15:05:06.574Z,34
2019-04-10T15:10:06.629Z,34
2019-04-10T15:15:06.585Z,33
2019-04-10T15:20:06.933Z,33
2019-04-10T15:25:06.816Z,34
2019-04-10T15:30:06.598Z,34
2019-04-10T15:35:06.644Z,34
2019-04-10T15:40:14.875Z,34
2019-04-10T15:45:07.221Z,34
2019-04-10T15:50:07.049Z,35
2019-04-10T15:55:07.770Z,35
2019-04-10T16:00:06.573Z,35
2019-04-10T16:05:07.058Z,35
2019-04-10T16:10:06.712Z,35
2019-04-10T16:15:06.852Z,34
2019-04-10T16:20:06.643Z,34
2019-04-10T16:25:06.621Z,35
2019-04-10T16:30:06.652Z,35
2019-04-10T16:35:07.238Z,35
2019-04-10T16:40:08.296Z,35
2019-04-10T16:45:06.633Z,36
2019-04-10T16:50:06.634Z,36
2019-04-10T16:55:07.250Z,36
2019-04-10T17:00:06.900Z,36
2019-04-10T17:05:06.625Z,37
2019-04-10T17:10:13.925Z,37
2019-04-10T17:15:08.019Z,38
2019-04-10T17:20:06.972Z,37
2019-04-10T17:25:06.666Z,37
2019-04-10T17:30:06.615Z,38
2019-04-10T17:35:07.328Z,39
2019-04-10T17:40:08.139Z,40
2019-04-10T17:45:06.684Z,41
2019-04-10T17:50:07.684Z,40
2019-04-10T17:55:07.313Z,41
2019-04-10T18:00:06.993Z,42
2019-04-10T18:05:06.661Z,42
2019-04-10T18:10:06.644Z,43
2019-04-10T18:15:08.042Z,44
2019-04-10T18:20:06.677Z,44
2019-04-10T18:25:06.724Z,45
2019-04-10T18:30:07.810Z,45
2019-04-10T18:35:06.859Z,46
2019-04-10T18:40:07.446Z,47
2019-04-10T18:45:06.714Z,48
2019-04-10T18:50:07.767Z,48
2019-04-10T18:55:07.749Z,49
2019-04-10T19:00:06.662Z,49
2019-04-10T19:05:07.509Z,50
2019-04-10T19:10:06.696Z,51
2019-04-10T19:15:06.746Z,51
2019-04-10T19:20:07.632Z,52
2019-04-10T19:25:06.711Z,52
2019-04-10T19:30:06.759Z,52
2019-04-10T19:35:06.755Z,53
2019-04-10T19:40:07.034Z,53
2019-04-10T19:45:07.832Z,53
2019-04-10T19:50:06.732Z,53
2019-04-10T19:55:07.364Z,54
2019-04-10T20:00:06.681Z,54
2019-04-10T20:05:07.363Z,54
2019-04-10T20:10:06.767Z,54
2019-04-10T20:15:06.699Z,54
2019-04-10T20:20:06.899Z,55
2019-04-10T20:25:06.772Z,55
2019-04-10T20:30:07.689Z,55
2019-04-10T20:35:07.765Z,56
2019-04-10T20:40:06.763Z,56
2019-04-10T20:45:07.334Z,56
2019-04-10T20:50:07.787Z,56
2019-04-10T20:55:06.755Z,57
2019-04-10T21:00:07.335Z,57
2019-04-10T21:05:09.639Z,57
2019-04-10T21:10:06.799Z,58
2019-04-10T21:15:06.772Z,58
2019-04-10T21:20:07.787Z,59
2019-04-10T21:25:06.802Z,60
2019-04-10T21:30:07.245Z,60
2019-04-10T21:35:07.570Z,61
2019-04-10T21:40:08.006Z,62
2019-04-10T21:45:07.396Z,62
2019-04-10T21:50:06.744Z,63
2019-04-10T21:55:06.823Z,64
2019-04-10T22:00:07.821Z,64
2019-04-10T22:05:07.994Z,65
2019-04-10T22:10:07.723Z,67
2019-04-10T22:15:06.800Z,68
2019-04-10T22:20:07.554Z,69
2019-04-10T22:25:07.387Z,70
2019-04-10T22:30:06.808Z,71
2019-04-10T22:35:06.806Z,72
2019-04-10T22:40:06.838Z,73
2019-04-10T22:45:06.839Z,74
2019-04-10T22:50:06.808Z,76
2019-04-10T22:55:07.104Z,76
2019-04-10T23:00:07.321Z,77
2019-04-10T23:05:07.639Z,78
2019-04-10T23:10:06.817Z,79
2019-04-10T23:15:07.099Z,81
2019-04-10T23:20:06.860Z,81
2019-04-10T23:25:07.762Z,83
2019-04-10T23:30:06.864Z,84
2019-04-10T23:35:07.312Z,85
2019-04-10T23:40:06.880Z,86
2019-04-10T23:45:07.160Z,87
2019-04-10T23:50:08.056Z,87
2019-04-10T23:55:07.905Z,87
